sensor_id;sensor_type;location;lat;lon;timestamp;P1;durP1;ratioP1;P2;durP2;ratioP2
28627;SDS011;15815;46.760;19.604;2022-11-23T00:01:27;21.27;;;12.82;;
28627;SDS011;15815;46.760;19.604;2022-11-23T00:03:55;20.08;;;12.40;;
28627;SDS011;15815;46.760;19.604;2022-11-23T00:06:23;21.08;;;13.07;;
28627;SDS011;15815;46.760;19.604;2022-11-23T00:08:50;22.33;;;12.95;;
28627;SDS011;15815;46.760;19.604;2022-11-23T00:11:16;20.63;;;13.10;;
28627;SDS011;15815;46.760;19.604;2022-11-23T00:13:42;25.13;;;13.50;;
28627;SDS011;15815;46.760;19.604;2022-11-23T00:16:12;19.52;;;12.70;;
28627;SDS011;15815;46.760;19.604;2022-11-23T00:18:39;24.05;;;14.25;;
28627;SDS011;15815;46.760;19.604;2022-11-23T00:21:08;19.13;;;12.25;;
28627;SDS011;15815;46.760;19.604;2022-11-23T00:23:35;21.50;;;13.25;;
28627;SDS011;15815;46.760;19.604;2022-11-23T00:26:01;19.92;;;13.75;;
28627;SDS011;15815;46.760;19.604;2022-11-23T00:28:27;21.13;;;12.75;;
28627;SDS011;15815;46.760;19.604;2022-11-23T00:30:53;19.75;;;13.18;;
28627;SDS011;15815;46.760;19.604;2022-11-23T00:33:18;21.83;;;14.68;;
28627;SDS011;15815;46.760;19.604;2022-11-23T00:35:43;22.27;;;14.57;;
28627;SDS011;15815;46.760;19.604;2022-11-23T00:38:09;21.02;;;13.63;;
28627;SDS011;15815;46.760;19.604;2022-11-23T00:40:38;21.35;;;13.30;;
28627;SDS011;15815;46.760;19.604;2022-11-23T00:43:03;19.60;;;13.40;;
28627;SDS011;15815;46.760;19.604;2022-11-23T00:45:29;24.27;;;13.30;;
28627;SDS011;15815;46.760;19.604;2022-11-23T00:47:54;21.35;;;14.02;;
28627;SDS011;15815;46.760;19.604;2022-11-23T00:50:19;25.52;;;14.82;;
28627;SDS011;15815;46.760;19.604;2022-11-23T00:52:48;23.08;;;14.55;;
28627;SDS011;15815;46.760;19.604;2022-11-23T00:55:13;23.33;;;14.50;;
28627;SDS011;15815;46.760;19.604;2022-11-23T00:57:38;25.05;;;15.13;;
28627;SDS011;15815;46.760;19.604;2022-11-23T01:00:05;21.98;;;13.82;;
28627;SDS011;15815;46.760;19.604;2022-11-23T01:02:33;22.50;;;13.52;;
28627;SDS011;15815;46.760;19.604;2022-11-23T01:04:59;24.17;;;15.55;;
28627;SDS011;15815;46.760;19.604;2022-11-23T01:07:26;25.80;;;14.43;;
28627;SDS011;15815;46.760;19.604;2022-11-23T01:09:54;23.63;;;14.43;;
28627;SDS011;15815;46.760;19.604;2022-11-23T01:12:19;25.30;;;14.57;;
28627;SDS011;15815;46.760;19.604;2022-11-23T01:14:47;21.42;;;14.00;;
28627;SDS011;15815;46.760;19.604;2022-11-23T01:17:12;26.67;;;14.50;;
28627;SDS011;15815;46.760;19.604;2022-11-23T01:19:40;19.95;;;13.50;;
28627;SDS011;15815;46.760;19.604;2022-11-23T01:22:06;20.42;;;13.80;;
28627;SDS011;15815;46.760;19.604;2022-11-23T01:24:31;24.25;;;15.18;;
28627;SDS011;15815;46.760;19.604;2022-11-23T01:26:56;20.10;;;14.25;;
28627;SDS011;15815;46.760;19.604;2022-11-23T01:29:29;24.17;;;14.32;;
28627;SDS011;15815;46.760;19.604;2022-11-23T01:31:54;25.70;;;15.20;;
28627;SDS011;15815;46.760;19.604;2022-11-23T01:34:19;23.15;;;14.75;;
28627;SDS011;15815;46.760;19.604;2022-11-23T01:36:45;20.90;;;13.23;;
28627;SDS011;15815;46.760;19.604;2022-11-23T01:39:11;21.40;;;14.38;;
28627;SDS011;15815;46.760;19.604;2022-11-23T01:41:39;25.80;;;15.00;;
28627;SDS011;15815;46.760;19.604;2022-11-23T01:46:58;21.25;;;12.95;;
28627;SDS011;15815;46.760;19.604;2022-11-23T01:49:26;20.77;;;14.07;;
28627;SDS011;15815;46.760;19.604;2022-11-23T01:51:55;19.55;;;13.63;;
28627;SDS011;15815;46.760;19.604;2022-11-23T01:54:25;19.55;;;13.02;;
28627;SDS011;15815;46.760;19.604;2022-11-23T01:56:55;22.30;;;13.63;;
28627;SDS011;15815;46.760;19.604;2022-11-23T01:59:24;19.57;;;12.83;;
28627;SDS011;15815;46.760;19.604;2022-11-23T02:01:51;19.58;;;12.80;;
28627;SDS011;15815;46.760;19.604;2022-11-23T02:04:19;19.23;;;12.88;;
28627;SDS011;15815;46.760;19.604;2022-11-23T02:06:48;25.23;;;13.95;;
28627;SDS011;15815;46.760;19.604;2022-11-23T02:09:17;16.58;;;12.27;;
28627;SDS011;15815;46.760;19.604;2022-11-23T02:11:45;17.02;;;12.32;;
28627;SDS011;15815;46.760;19.604;2022-11-23T02:14:10;16.98;;;11.90;;
28627;SDS011;15815;46.760;19.604;2022-11-23T02:16:36;15.93;;;10.55;;
28627;SDS011;15815;46.760;19.604;2022-11-23T02:19:02;22.10;;;13.20;;
28627;SDS011;15815;46.760;19.604;2022-11-23T02:21:32;20.75;;;12.82;;
28627;SDS011;15815;46.760;19.604;2022-11-23T02:24:09;19.05;;;13.23;;
28627;SDS011;15815;46.760;19.604;2022-11-23T02:26:41;17.88;;;12.52;;
28627;SDS011;15815;46.760;19.604;2022-11-23T02:29:26;20.10;;;12.73;;
28627;SDS011;15815;46.760;19.604;2022-11-23T02:31:55;18.67;;;12.23;;
28627;SDS011;15815;46.760;19.604;2022-11-23T02:34:20;20.30;;;13.70;;
28627;SDS011;15815;46.760;19.604;2022-11-23T02:36:47;21.25;;;13.02;;
28627;SDS011;15815;46.760;19.604;2022-11-23T02:39:19;21.90;;;13.98;;
28627;SDS011;15815;46.760;19.604;2022-11-23T02:41:57;17.95;;;12.43;;
28627;SDS011;15815;46.760;19.604;2022-11-23T02:47:10;22.55;;;14.98;;
28627;SDS011;15815;46.760;19.604;2022-11-23T02:49:36;21.30;;;14.70;;
28627;SDS011;15815;46.760;19.604;2022-11-23T02:52:04;22.20;;;13.80;;
28627;SDS011;15815;46.760;19.604;2022-11-23T02:54:29;20.38;;;13.18;;
28627;SDS011;15815;46.760;19.604;2022-11-23T02:56:55;23.38;;;14.65;;
28627;SDS011;15815;46.760;19.604;2022-11-23T02:59:20;26.23;;;15.02;;
28627;SDS011;15815;46.760;19.604;2022-11-23T03:01:47;23.95;;;14.43;;
28627;SDS011;15815;46.760;19.604;2022-11-23T03:04:12;23.50;;;15.23;;
28627;SDS011;15815;46.760;19.604;2022-11-23T03:06:38;27.60;;;16.73;;
28627;SDS011;15815;46.760;19.604;2022-11-23T03:09:04;21.75;;;14.90;;
28627;SDS011;15815;46.760;19.604;2022-11-23T03:11:30;21.67;;;15.05;;
28627;SDS011;15815;46.760;19.604;2022-11-23T03:13:57;22.98;;;15.25;;
28627;SDS011;15815;46.760;19.604;2022-11-23T03:16:22;21.75;;;14.73;;
28627;SDS011;15815;46.760;19.604;2022-11-23T03:18:48;20.85;;;14.43;;
28627;SDS011;15815;46.760;19.604;2022-11-23T03:21:14;21.35;;;14.63;;
28627;SDS011;15815;46.760;19.604;2022-11-23T03:23:40;19.48;;;13.43;;
28627;SDS011;15815;46.760;19.604;2022-11-23T03:26:05;20.75;;;14.70;;
28627;SDS011;15815;46.760;19.604;2022-11-23T03:28:34;24.05;;;15.48;;
28627;SDS011;15815;46.760;19.604;2022-11-23T03:30:59;19.98;;;15.00;;
28627;SDS011;15815;46.760;19.604;2022-11-23T03:33:25;20.95;;;14.10;;
28627;SDS011;15815;46.760;19.604;2022-11-23T03:35:50;22.58;;;15.15;;
28627;SDS011;15815;46.760;19.604;2022-11-23T03:38:15;24.30;;;13.48;;
28627;SDS011;15815;46.760;19.604;2022-11-23T03:40:43;20.63;;;12.90;;
28627;SDS011;15815;46.760;19.604;2022-11-23T03:43:09;19.63;;;13.63;;
28627;SDS011;15815;46.760;19.604;2022-11-23T03:45:35;17.38;;;12.48;;
28627;SDS011;15815;46.760;19.604;2022-11-23T03:48:00;18.67;;;12.50;;
28627;SDS011;15815;46.760;19.604;2022-11-23T03:50:26;17.63;;;13.18;;
28627;SDS011;15815;46.760;19.604;2022-11-23T03:52:53;20.10;;;13.57;;
28627;SDS011;15815;46.760;19.604;2022-11-23T03:55:19;16.80;;;11.90;;
28627;SDS011;15815;46.760;19.604;2022-11-23T03:57:46;18.42;;;12.55;;
28627;SDS011;15815;46.760;19.604;2022-11-23T04:00:12;21.02;;;13.40;;
28627;SDS011;15815;46.760;19.604;2022-11-23T04:02:37;19.08;;;12.80;;
28627;SDS011;15815;46.760;19.604;2022-11-23T04:05:02;18.08;;;12.63;;
28627;SDS011;15815;46.760;19.604;2022-11-23T04:07:28;18.88;;;13.25;;
28627;SDS011;15815;46.760;19.604;2022-11-23T04:09:54;17.77;;;12.70;;
28627;SDS011;15815;46.760;19.604;2022-11-23T04:12:21;17.48;;;12.00;;
28627;SDS011;15815;46.760;19.604;2022-11-23T04:14:46;17.85;;;12.07;;
28627;SDS011;15815;46.760;19.604;2022-11-23T04:17:12;17.95;;;10.75;;
28627;SDS011;15815;46.760;19.604;2022-11-23T04:19:37;16.60;;;11.45;;
28627;SDS011;15815;46.760;19.604;2022-11-23T04:22:02;19.38;;;13.30;;
28627;SDS011;15815;46.760;19.604;2022-11-23T04:24:28;17.05;;;12.63;;
28627;SDS011;15815;46.760;19.604;2022-11-23T04:26:56;14.10;;;10.68;;
28627;SDS011;15815;46.760;19.604;2022-11-23T04:29:21;13.63;;;9.43;;
28627;SDS011;15815;46.760;19.604;2022-11-23T04:31:47;15.23;;;10.52;;
28627;SDS011;15815;46.760;19.604;2022-11-23T04:34:12;14.95;;;10.60;;
28627;SDS011;15815;46.760;19.604;2022-11-23T04:36:37;18.35;;;11.27;;
28627;SDS011;15815;46.760;19.604;2022-11-23T04:39:03;14.70;;;11.02;;
28627;SDS011;15815;46.760;19.604;2022-11-23T04:41:28;15.40;;;12.00;;
28627;SDS011;15815;46.760;19.604;2022-11-23T04:43:54;19.20;;;12.57;;
28627;SDS011;15815;46.760;19.604;2022-11-23T04:46:19;16.63;;;12.57;;
28627;SDS011;15815;46.760;19.604;2022-11-23T04:48:45;17.30;;;12.00;;
28627;SDS011;15815;46.760;19.604;2022-11-23T04:51:10;20.25;;;12.32;;
28627;SDS011;15815;46.760;19.604;2022-11-23T04:53:36;19.75;;;12.95;;
28627;SDS011;15815;46.760;19.604;2022-11-23T04:56:01;20.20;;;13.13;;
28627;SDS011;15815;46.760;19.604;2022-11-23T04:58:27;22.23;;;13.90;;
28627;SDS011;15815;46.760;19.604;2022-11-23T05:03:22;18.15;;;12.40;;
28627;SDS011;15815;46.760;19.604;2022-11-23T05:05:47;20.55;;;12.52;;
28627;SDS011;15815;46.760;19.604;2022-11-23T05:08:13;21.02;;;12.93;;
28627;SDS011;15815;46.760;19.604;2022-11-23T05:10:38;18.92;;;12.13;;
28627;SDS011;15815;46.760;19.604;2022-11-23T05:13:03;18.55;;;13.38;;
28627;SDS011;15815;46.760;19.604;2022-11-23T05:15:29;19.30;;;12.55;;
28627;SDS011;15815;46.760;19.604;2022-11-23T05:17:59;17.08;;;12.93;;
28627;SDS011;15815;46.760;19.604;2022-11-23T05:20:30;23.35;;;13.60;;
28627;SDS011;15815;46.760;19.604;2022-11-23T05:25:31;19.80;;;12.73;;
28627;SDS011;15815;46.760;19.604;2022-11-23T05:28:18;19.88;;;13.55;;
28627;SDS011;15815;46.760;19.604;2022-11-23T05:30:45;20.63;;;12.48;;
28627;SDS011;15815;46.760;19.604;2022-11-23T05:33:11;18.05;;;13.50;;
28627;SDS011;15815;46.760;19.604;2022-11-23T05:35:36;21.23;;;13.95;;
28627;SDS011;15815;46.760;19.604;2022-11-23T05:38:02;18.55;;;13.40;;
28627;SDS011;15815;46.760;19.604;2022-11-23T05:40:30;20.20;;;13.40;;
28627;SDS011;15815;46.760;19.604;2022-11-23T05:42:56;20.98;;;13.57;;
28627;SDS011;15815;46.760;19.604;2022-11-23T05:45:22;19.52;;;13.90;;
28627;SDS011;15815;46.760;19.604;2022-11-23T05:47:49;19.92;;;13.18;;
28627;SDS011;15815;46.760;19.604;2022-11-23T05:50:16;26.27;;;15.27;;
28627;SDS011;15815;46.760;19.604;2022-11-23T05:52:41;23.02;;;12.93;;
28627;SDS011;15815;46.760;19.604;2022-11-23T05:55:06;17.13;;;12.70;;
28627;SDS011;15815;46.760;19.604;2022-11-23T05:57:32;18.52;;;13.73;;
28627;SDS011;15815;46.760;19.604;2022-11-23T05:59:57;19.55;;;13.18;;
28627;SDS011;15815;46.760;19.604;2022-11-23T06:02:22;19.40;;;13.48;;
28627;SDS011;15815;46.760;19.604;2022-11-23T06:04:56;20.77;;;14.40;;
28627;SDS011;15815;46.760;19.604;2022-11-23T06:07:21;19.88;;;14.15;;
28627;SDS011;15815;46.760;19.604;2022-11-23T06:09:47;19.42;;;14.23;;
28627;SDS011;15815;46.760;19.604;2022-11-23T06:12:12;18.10;;;14.10;;
28627;SDS011;15815;46.760;19.604;2022-11-23T06:14:37;18.45;;;13.88;;
28627;SDS011;15815;46.760;19.604;2022-11-23T06:17:06;18.48;;;12.13;;
28627;SDS011;15815;46.760;19.604;2022-11-23T06:19:31;19.17;;;13.60;;
28627;SDS011;15815;46.760;19.604;2022-11-23T06:21:56;20.70;;;13.15;;
28627;SDS011;15815;46.760;19.604;2022-11-23T06:24:22;20.77;;;13.75;;
28627;SDS011;15815;46.760;19.604;2022-11-23T06:26:53;23.23;;;12.98;;
28627;SDS011;15815;46.760;19.604;2022-11-23T06:29:19;18.67;;;13.02;;
28627;SDS011;15815;46.760;19.604;2022-11-23T06:31:44;18.77;;;13.50;;
28627;SDS011;15815;46.760;19.604;2022-11-23T06:34:10;18.13;;;12.70;;
28627;SDS011;15815;46.760;19.604;2022-11-23T06:36:35;17.92;;;12.48;;
28627;SDS011;15815;46.760;19.604;2022-11-23T06:39:01;23.05;;;12.52;;
28627;SDS011;15815;46.760;19.604;2022-11-23T06:41:26;17.65;;;13.48;;
28627;SDS011;15815;46.760;19.604;2022-11-23T06:43:51;19.88;;;13.05;;
28627;SDS011;15815;46.760;19.604;2022-11-23T06:46:17;20.77;;;13.50;;
28627;SDS011;15815;46.760;19.604;2022-11-23T06:48:43;18.17;;;12.52;;
28627;SDS011;15815;46.760;19.604;2022-11-23T06:51:11;18.48;;;12.75;;
28627;SDS011;15815;46.760;19.604;2022-11-23T06:53:37;20.75;;;13.77;;
28627;SDS011;15815;46.760;19.604;2022-11-23T06:56:02;21.15;;;13.00;;
28627;SDS011;15815;46.760;19.604;2022-11-23T06:58:28;23.20;;;14.52;;
28627;SDS011;15815;46.760;19.604;2022-11-23T07:00:53;19.35;;;13.45;;
28627;SDS011;15815;46.760;19.604;2022-11-23T07:03:27;20.92;;;13.48;;
28627;SDS011;15815;46.760;19.604;2022-11-23T07:05:52;21.10;;;12.75;;
28627;SDS011;15815;46.760;19.604;2022-11-23T07:08:18;19.58;;;14.10;;
28627;SDS011;15815;46.760;19.604;2022-11-23T07:10:43;22.02;;;14.13;;
28627;SDS011;15815;46.760;19.604;2022-11-23T07:13:09;20.08;;;14.15;;
28627;SDS011;15815;46.760;19.604;2022-11-23T07:15:36;16.58;;;12.55;;
28627;SDS011;15815;46.760;19.604;2022-11-23T07:18:05;22.92;;;14.48;;
28627;SDS011;15815;46.760;19.604;2022-11-23T07:20:31;20.27;;;13.73;;
28627;SDS011;15815;46.760;19.604;2022-11-23T07:22:57;20.70;;;15.07;;
28627;SDS011;15815;46.760;19.604;2022-11-23T07:25:25;22.98;;;14.80;;
28627;SDS011;15815;46.760;19.604;2022-11-23T07:27:57;24.27;;;15.52;;
28627;SDS011;15815;46.760;19.604;2022-11-23T07:30:27;22.95;;;16.20;;
28627;SDS011;15815;46.760;19.604;2022-11-23T07:33:01;26.65;;;15.85;;
28627;SDS011;15815;46.760;19.604;2022-11-23T07:35:28;21.42;;;14.40;;
28627;SDS011;15815;46.760;19.604;2022-11-23T07:37:57;21.27;;;14.75;;
28627;SDS011;15815;46.760;19.604;2022-11-23T07:40:23;23.48;;;13.95;;
28627;SDS011;15815;46.760;19.604;2022-11-23T07:42:51;20.17;;;12.25;;
28627;SDS011;15815;46.760;19.604;2022-11-23T07:45:17;22.40;;;12.75;;
28627;SDS011;15815;46.760;19.604;2022-11-23T07:47:43;21.50;;;14.35;;
28627;SDS011;15815;46.760;19.604;2022-11-23T07:50:15;22.05;;;12.63;;
28627;SDS011;15815;46.760;19.604;2022-11-23T07:52:40;25.15;;;14.23;;
28627;SDS011;15815;46.760;19.604;2022-11-23T07:55:07;22.17;;;13.65;;
28627;SDS011;15815;46.760;19.604;2022-11-23T07:57:33;20.40;;;12.55;;
28627;SDS011;15815;46.760;19.604;2022-11-23T07:59:58;21.33;;;13.77;;
28627;SDS011;15815;46.760;19.604;2022-11-23T08:02:34;18.45;;;13.75;;
28627;SDS011;15815;46.760;19.604;2022-11-23T08:04:59;15.15;;;10.55;;
28627;SDS011;15815;46.760;19.604;2022-11-23T08:07:24;13.38;;;10.15;;
28627;SDS011;15815;46.760;19.604;2022-11-23T08:09:51;16.30;;;11.02;;
28627;SDS011;15815;46.760;19.604;2022-11-23T08:12:17;18.63;;;11.88;;
28627;SDS011;15815;46.760;19.604;2022-11-23T08:14:42;20.38;;;13.32;;
28627;SDS011;15815;46.760;19.604;2022-11-23T08:17:07;13.85;;;10.20;;
28627;SDS011;15815;46.760;19.604;2022-11-23T08:19:34;13.20;;;10.88;;
28627;SDS011;15815;46.760;19.604;2022-11-23T08:21:59;11.27;;;8.82;;
28627;SDS011;15815;46.760;19.604;2022-11-23T08:24:24;13.55;;;8.65;;
28627;SDS011;15815;46.760;19.604;2022-11-23T08:26:50;13.93;;;9.10;;
28627;SDS011;15815;46.760;19.604;2022-11-23T08:29:15;19.05;;;12.82;;
28627;SDS011;15815;46.760;19.604;2022-11-23T08:31:40;12.00;;;8.77;;
28627;SDS011;15815;46.760;19.604;2022-11-23T08:34:06;10.90;;;7.32;;
28627;SDS011;15815;46.760;19.604;2022-11-23T08:36:31;10.55;;;7.43;;
28627;SDS011;15815;46.760;19.604;2022-11-23T08:38:57;10.43;;;6.97;;
28627;SDS011;15815;46.760;19.604;2022-11-23T08:41:26;11.75;;;9.02;;
28627;SDS011;15815;46.760;19.604;2022-11-23T08:43:51;8.80;;;6.78;;
28627;SDS011;15815;46.760;19.604;2022-11-23T08:46:17;8.32;;;6.88;;
28627;SDS011;15815;46.760;19.604;2022-11-23T08:48:43;11.95;;;8.15;;
28627;SDS011;15815;46.760;19.604;2022-11-23T08:51:09;9.35;;;7.57;;
28627;SDS011;15815;46.760;19.604;2022-11-23T08:53:34;9.75;;;7.22;;
28627;SDS011;15815;46.760;19.604;2022-11-23T08:56:00;11.77;;;7.10;;
28627;SDS011;15815;46.760;19.604;2022-11-23T08:58:33;10.30;;;7.03;;
28627;SDS011;15815;46.760;19.604;2022-11-23T09:03:23;10.13;;;8.70;;
28627;SDS011;15815;46.760;19.604;2022-11-23T09:05:51;10.38;;;7.82;;
28627;SDS011;15815;46.760;19.604;2022-11-23T09:08:18;13.43;;;9.52;;
28627;SDS011;15815;46.760;19.604;2022-11-23T09:10:43;13.40;;;7.45;;
28627;SDS011;15815;46.760;19.604;2022-11-23T09:13:08;15.35;;;9.90;;
28627;SDS011;15815;46.760;19.604;2022-11-23T09:15:34;15.43;;;10.95;;
28627;SDS011;15815;46.760;19.604;2022-11-23T09:18:02;10.55;;;8.15;;
28627;SDS011;15815;46.760;19.604;2022-11-23T09:20:27;9.93;;;7.50;;
28627;SDS011;15815;46.760;19.604;2022-11-23T09:22:54;14.73;;;9.07;;
28627;SDS011;15815;46.760;19.604;2022-11-23T09:25:20;10.45;;;7.38;;
28627;SDS011;15815;46.760;19.604;2022-11-23T09:27:47;10.95;;;7.20;;
28627;SDS011;15815;46.760;19.604;2022-11-23T09:30:14;16.15;;;10.05;;
28627;SDS011;15815;46.760;19.604;2022-11-23T09:32:40;12.65;;;8.85;;
28627;SDS011;15815;46.760;19.604;2022-11-23T09:35:07;10.85;;;7.25;;
28627;SDS011;15815;46.760;19.604;2022-11-23T09:37:33;11.45;;;7.75;;
28627;SDS011;15815;46.760;19.604;2022-11-23T09:39:58;12.57;;;8.48;;
28627;SDS011;15815;46.760;19.604;2022-11-23T09:53:39;26.25;;;14.35;;
28627;SDS011;15815;46.760;19.604;2022-11-23T09:56:20;12.77;;;9.18;;
28627;SDS011;15815;46.760;19.604;2022-11-23T09:59:01;11.40;;;7.97;;
28627;SDS011;15815;46.760;19.604;2022-11-23T10:01:35;22.50;;;14.85;;
28627;SDS011;15815;46.760;19.604;2022-11-23T10:04:02;16.23;;;9.85;;
28627;SDS011;15815;46.760;19.604;2022-11-23T10:06:29;14.48;;;9.10;;
28627;SDS011;15815;46.760;19.604;2022-11-23T10:16:51;10.93;;;7.80;;
28627;SDS011;15815;46.760;19.604;2022-11-23T10:22:11;14.52;;;9.60;;
28627;SDS011;15815;46.760;19.604;2022-11-23T10:24:49;32.35;;;21.33;;
28627;SDS011;15815;46.760;19.604;2022-11-23T10:27:27;23.17;;;15.65;;
28627;SDS011;15815;46.760;19.604;2022-11-23T10:29:53;13.68;;;10.95;;
28627;SDS011;15815;46.760;19.604;2022-11-23T10:35:07;27.10;;;17.02;;
28627;SDS011;15815;46.760;19.604;2022-11-23T10:37:37;13.68;;;10.23;;
28627;SDS011;15815;46.760;19.604;2022-11-23T10:40:15;14.00;;;10.38;;
28627;SDS011;15815;46.760;19.604;2022-11-23T10:42:46;16.52;;;10.40;;
28627;SDS011;15815;46.760;19.604;2022-11-23T10:45:21;20.67;;;12.43;;
28627;SDS011;15815;46.760;19.604;2022-11-23T10:47:50;19.95;;;12.23;;
28627;SDS011;15815;46.760;19.604;2022-11-23T10:52:53;24.15;;;13.45;;
28627;SDS011;15815;46.760;19.604;2022-11-23T10:55:25;17.42;;;10.98;;
28627;SDS011;15815;46.760;19.604;2022-11-23T10:57:53;17.30;;;11.82;;
28627;SDS011;15815;46.760;19.604;2022-11-23T11:00:20;16.75;;;9.75;;
28627;SDS011;15815;46.760;19.604;2022-11-23T11:05:24;18.02;;;11.43;;
28627;SDS011;15815;46.760;19.604;2022-11-23T11:07:55;21.52;;;15.13;;
28627;SDS011;15815;46.760;19.604;2022-11-23T11:18:26;13.77;;;10.85;;
28627;SDS011;15815;46.760;19.604;2022-11-23T11:20:54;18.13;;;13.07;;
28627;SDS011;15815;46.760;19.604;2022-11-23T11:23:22;16.02;;;12.95;;
28627;SDS011;15815;46.760;19.604;2022-11-23T11:25:49;13.52;;;9.93;;
28627;SDS011;15815;46.760;19.604;2022-11-23T11:28:36;20.75;;;10.45;;
28627;SDS011;15815;46.760;19.604;2022-11-23T11:33:41;19.75;;;10.48;;
28627;SDS011;15815;46.760;19.604;2022-11-23T11:36:13;17.60;;;11.95;;
28627;SDS011;15815;46.760;19.604;2022-11-23T11:38:44;19.35;;;13.40;;
28627;SDS011;15815;46.760;19.604;2022-11-23T11:41:15;20.88;;;13.45;;
28627;SDS011;15815;46.760;19.604;2022-11-23T11:43:54;17.90;;;11.90;;
28627;SDS011;15815;46.760;19.604;2022-11-23T11:46:45;20.50;;;12.80;;
28627;SDS011;15815;46.760;19.604;2022-11-23T11:51:46;17.35;;;12.00;;
28627;SDS011;15815;46.760;19.604;2022-11-23T11:54:23;17.90;;;13.10;;
28627;SDS011;15815;46.760;19.604;2022-11-23T11:57:04;20.55;;;11.63;;
28627;SDS011;15815;46.760;19.604;2022-11-23T12:02:28;21.40;;;14.43;;
28627;SDS011;15815;46.760;19.604;2022-11-23T12:09:56;15.38;;;11.75;;
28627;SDS011;15815;46.760;19.604;2022-11-23T12:12:28;18.02;;;13.60;;
28627;SDS011;15815;46.760;19.604;2022-11-23T12:14:59;18.35;;;13.18;;
28627;SDS011;15815;46.760;19.604;2022-11-23T12:25:31;18.80;;;14.23;;
28627;SDS011;15815;46.760;19.604;2022-11-23T12:28:08;18.33;;;12.65;;
28627;SDS011;15815;46.760;19.604;2022-11-23T12:36:14;23.27;;;15.00;;
28627;SDS011;15815;46.760;19.604;2022-11-23T12:44:26;18.38;;;13.60;;
28627;SDS011;15815;46.760;19.604;2022-11-23T12:52:26;32.55;;;19.45;;
28627;SDS011;15815;46.760;19.604;2022-11-23T12:55:22;26.90;;;17.27;;
28627;SDS011;15815;46.760;19.604;2022-11-23T12:57:59;39.30;;;22.38;;
28627;SDS011;15815;46.760;19.604;2022-11-23T13:00:42;83.95;;;40.55;;
28627;SDS011;15815;46.760;19.604;2022-11-23T13:14:30;21.98;;;12.88;;
28627;SDS011;15815;46.760;19.604;2022-11-23T13:22:09;95.75;;;39.53;;
28627;SDS011;15815;46.760;19.604;2022-11-23T13:24:39;52.50;;;24.63;;
28627;SDS011;15815;46.760;19.604;2022-11-23T13:40:22;45.55;;;29.95;;
28627;SDS011;15815;46.760;19.604;2022-11-23T13:42:52;29.60;;;21.33;;
28627;SDS011;15815;46.760;19.604;2022-11-23T13:53:18;33.10;;;20.65;;
28627;SDS011;15815;46.760;19.604;2022-11-23T13:55:46;37.28;;;21.33;;
28627;SDS011;15815;46.760;19.604;2022-11-23T14:00:48;32.15;;;19.95;;
28627;SDS011;15815;46.760;19.604;2022-11-23T14:11:49;40.03;;;24.50;;
28627;SDS011;15815;46.760;19.604;2022-11-23T14:14:20;39.45;;;26.13;;
28627;SDS011;15815;46.760;19.604;2022-11-23T14:19:40;32.75;;;19.23;;
28627;SDS011;15815;46.760;19.604;2022-11-23T14:33:21;22.15;;;15.00;;
28627;SDS011;15815;46.760;19.604;2022-11-23T14:35:57;26.77;;;19.67;;
28627;SDS011;15815;46.760;19.604;2022-11-23T14:41:34;38.38;;;20.80;;
28627;SDS011;15815;46.760;19.604;2022-11-23T14:44:00;31.73;;;19.25;;
28627;SDS011;15815;46.760;19.604;2022-11-23T14:46:28;31.92;;;19.98;;
28627;SDS011;15815;46.760;19.604;2022-11-23T14:49:03;30.75;;;19.30;;
28627;SDS011;15815;46.760;19.604;2022-11-23T14:51:32;35.28;;;22.45;;
28627;SDS011;15815;46.760;19.604;2022-11-23T14:53:59;32.10;;;22.42;;
28627;SDS011;15815;46.760;19.604;2022-11-23T14:59:00;29.88;;;19.25;;
28627;SDS011;15815;46.760;19.604;2022-11-23T15:01:29;31.30;;;20.65;;
28627;SDS011;15815;46.760;19.604;2022-11-23T15:03:55;32.88;;;21.48;;
28627;SDS011;15815;46.760;19.604;2022-11-23T15:06:23;33.10;;;24.48;;
28627;SDS011;15815;46.760;19.604;2022-11-23T15:11:40;48.15;;;33.80;;
28627;SDS011;15815;46.760;19.604;2022-11-23T15:14:19;34.63;;;25.05;;
28627;SDS011;15815;46.760;19.604;2022-11-23T15:16:50;147.43;;;75.70;;
28627;SDS011;15815;46.760;19.604;2022-11-23T15:19:16;60.28;;;38.17;;
28627;SDS011;15815;46.760;19.604;2022-11-23T15:21:45;50.72;;;35.90;;
28627;SDS011;15815;46.760;19.604;2022-11-23T15:24:18;31.00;;;21.45;;
28627;SDS011;15815;46.760;19.604;2022-11-23T15:29:35;36.88;;;24.58;;
28627;SDS011;15815;46.760;19.604;2022-11-23T15:32:02;39.83;;;25.58;;
28627;SDS011;15815;46.760;19.604;2022-11-23T15:34:44;54.33;;;31.67;;
28627;SDS011;15815;46.760;19.604;2022-11-23T15:37:11;57.50;;;34.25;;
28627;SDS011;15815;46.760;19.604;2022-11-23T15:39:37;86.03;;;46.03;;
28627;SDS011;15815;46.760;19.604;2022-11-23T15:42:02;110.22;;;57.58;;
28627;SDS011;15815;46.760;19.604;2022-11-23T15:44:29;169.90;;;80.57;;
28627;SDS011;15815;46.760;19.604;2022-11-23T15:47:00;98.35;;;52.00;;
28627;SDS011;15815;46.760;19.604;2022-11-23T15:49:30;107.45;;;57.00;;
28627;SDS011;15815;46.760;19.604;2022-11-23T15:52:35;104.57;;;55.88;;
28627;SDS011;15815;46.760;19.604;2022-11-23T15:55:00;90.43;;;52.78;;
28627;SDS011;15815;46.760;19.604;2022-11-23T15:57:30;82.72;;;47.60;;
28627;SDS011;15815;46.760;19.604;2022-11-23T15:59:56;60.45;;;37.65;;
28627;SDS011;15815;46.760;19.604;2022-11-23T16:02:25;48.15;;;31.10;;
28627;SDS011;15815;46.760;19.604;2022-11-23T16:05:15;42.28;;;28.52;;
28627;SDS011;15815;46.760;19.604;2022-11-23T16:07:52;34.60;;;23.92;;
28627;SDS011;15815;46.760;19.604;2022-11-23T16:10:23;35.55;;;22.70;;
28627;SDS011;15815;46.760;19.604;2022-11-23T16:13:00;36.05;;;20.45;;
28627;SDS011;15815;46.760;19.604;2022-11-23T16:15:29;29.38;;;18.40;;
28627;SDS011;15815;46.760;19.604;2022-11-23T16:20:42;27.48;;;19.40;;
28627;SDS011;15815;46.760;19.604;2022-11-23T16:23:22;71.13;;;46.22;;
28627;SDS011;15815;46.760;19.604;2022-11-23T16:25:58;75.50;;;48.55;;
28627;SDS011;15815;46.760;19.604;2022-11-23T16:28:30;50.20;;;32.90;;
28627;SDS011;15815;46.760;19.604;2022-11-23T16:30:58;46.10;;;32.15;;
28627;SDS011;15815;46.760;19.604;2022-11-23T16:33:24;45.78;;;31.60;;
28627;SDS011;15815;46.760;19.604;2022-11-23T16:35:50;40.42;;;28.05;;
28627;SDS011;15815;46.760;19.604;2022-11-23T16:38:15;56.33;;;39.08;;
28627;SDS011;15815;46.760;19.604;2022-11-23T16:40:41;52.78;;;34.40;;
28627;SDS011;15815;46.760;19.604;2022-11-23T16:43:09;54.45;;;34.10;;
28627;SDS011;15815;46.760;19.604;2022-11-23T16:45:36;36.85;;;23.85;;
28627;SDS011;15815;46.760;19.604;2022-11-23T16:48:04;34.25;;;24.13;;
28627;SDS011;15815;46.760;19.604;2022-11-23T16:50:50;33.30;;;23.52;;
28627;SDS011;15815;46.760;19.604;2022-11-23T16:53:21;37.67;;;25.67;;
28627;SDS011;15815;46.760;19.604;2022-11-23T16:55:49;49.15;;;31.45;;
28627;SDS011;15815;46.760;19.604;2022-11-23T16:58:17;37.92;;;27.08;;
28627;SDS011;15815;46.760;19.604;2022-11-23T17:00:43;37.97;;;27.60;;
28627;SDS011;15815;46.760;19.604;2022-11-23T17:03:19;53.10;;;37.58;;